createdAt,value
2018-06-02T00:01:08.190Z,17.80
2018-06-02T00:03:36.391Z,17.80
2018-06-02T00:06:04.588Z,17.80
2018-06-02T00:08:32.085Z,17.80
2018-06-02T00:10:59.590Z,17.80
2018-06-02T00:13:26.964Z,17.80
2018-06-02T00:15:55.148Z,17.80
2018-06-02T00:18:23.352Z,17.90
2018-06-02T00:20:51.859Z,17.70
2018-06-02T00:23:22.104Z,17.70
2018-06-02T00:25:49.547Z,17.70
2018-06-02T00:28:17.753Z,17.70
2018-06-02T00:30:45.212Z,17.70
2018-06-02T00:33:13.405Z,17.60
2018-06-02T00:35:41.585Z,17.60
2018-06-02T00:38:09.784Z,17.60
2018-06-02T00:40:37.211Z,17.60
2018-06-02T00:43:04.640Z,17.50
2018-06-02T00:45:32.073Z,17.50
2018-06-02T00:48:00.268Z,17.50
2018-06-02T00:50:28.467Z,17.50
2018-06-02T00:52:55.912Z,17.50
2018-06-02T00:55:24.098Z,17.40
2018-06-02T00:57:52.311Z,17.30
2018-06-02T01:00:19.729Z,17.30
2018-06-02T01:02:47.157Z,17.30
2018-06-02T01:05:14.607Z,17.30
2018-06-02T01:07:42.806Z,17.30
2018-06-02T01:10:11.001Z,17.30
2018-06-02T01:12:38.422Z,17.30
2018-06-02T01:15:05.861Z,17.30
2018-06-02T01:17:33.288Z,17.30
2018-06-02T01:20:01.507Z,17.30
2018-06-02T01:22:28.946Z,17.20
2018-06-02T01:24:57.137Z,17.20
2018-06-02T01:27:25.315Z,17.20
2018-06-02T01:29:53.504Z,17.20
2018-06-02T01:32:21.703Z,17.20
2018-06-02T01:34:49.887Z,17.20
2018-06-02T01:37:18.089Z,17.00
2018-06-02T01:39:45.500Z,17.00
2018-06-02T01:42:12.948Z,17.00
2018-06-02T01:44:40.360Z,17.00
2018-06-02T01:47:07.808Z,17.10
2018-06-02T01:49:35.241Z,17.10
2018-06-02T01:52:02.663Z,17.00
2018-06-02T01:54:30.076Z,17.10
2018-06-02T01:56:57.499Z,17.10
2018-06-02T01:59:24.936Z,17.20
2018-06-02T02:01:52.351Z,17.10
2018-06-02T02:04:20.559Z,17.10
2018-06-02T02:06:48.736Z,17.20
2018-06-02T02:09:16.941Z,17.20
2018-06-02T02:11:44.365Z,17.20
2018-06-02T02:14:11.819Z,17.30
2018-06-02T02:16:39.238Z,17.30
2018-06-02T02:19:06.659Z,17.30
2018-06-02T02:21:34.099Z,17.30
2018-06-02T02:24:01.544Z,17.10
2018-06-02T02:26:29.728Z,17.00
2018-06-02T02:28:57.158Z,17.00
2018-06-02T02:31:26.112Z,16.90
2018-06-02T02:33:53.523Z,16.90
2018-06-02T02:36:20.972Z,16.90
2018-06-02T02:38:48.385Z,17.00
2018-06-02T02:41:15.821Z,16.90
2018-06-02T02:43:43.251Z,16.80
2018-06-02T02:46:11.427Z,16.80
2018-06-02T02:48:39.621Z,16.80
2018-06-02T02:51:07.827Z,16.90
2018-06-02T02:53:36.013Z,16.90
2018-06-02T02:56:03.440Z,16.90
2018-06-02T02:58:30.870Z,16.90
2018-06-02T03:00:58.285Z,17.00
2018-06-02T03:03:25.740Z,17.00
2018-06-02T03:05:53.189Z,17.10
2018-06-02T03:08:20.643Z,17.00
2018-06-02T03:10:48.071Z,16.90
2018-06-02T03:13:15.486Z,16.70
2018-06-02T03:15:42.916Z,16.70
2018-06-02T03:18:11.128Z,16.60
2018-06-02T03:20:38.572Z,16.60
2018-06-02T03:23:06.018Z,16.60
2018-06-02T03:25:33.452Z,16.60
2018-06-02T03:28:00.875Z,16.60
2018-06-02T03:30:29.133Z,16.70
2018-06-02T03:32:56.562Z,16.70
2018-06-02T03:35:24.014Z,16.80
2018-06-02T03:37:51.860Z,17.00
2018-06-02T03:40:19.275Z,16.90
2018-06-02T03:42:46.700Z,17.00
2018-06-02T03:45:14.142Z,17.00
2018-06-02T03:47:41.581Z,17.00
2018-06-02T03:50:08.998Z,17.00
2018-06-02T03:52:36.429Z,17.00
2018-06-02T03:55:03.861Z,17.00
2018-06-02T03:57:31.356Z,17.00
2018-06-02T03:59:59.546Z,17.10
2018-06-02T04:02:26.964Z,17.10
2018-06-02T04:04:54.405Z,17.10
2018-06-02T04:07:21.841Z,17.10
2018-06-02T04:09:50.042Z,17.20
2018-06-02T04:12:17.474Z,17.20
2018-06-02T04:14:44.904Z,17.20
2018-06-02T04:17:12.341Z,17.20
2018-06-02T04:19:40.528Z,17.30
2018-06-02T04:22:07.975Z,17.20
2018-06-02T04:24:35.399Z,17.30
2018-06-02T04:27:02.851Z,17.30
2018-06-02T04:29:30.336Z,17.30
2018-06-02T04:31:57.801Z,17.30
2018-06-02T04:34:25.228Z,17.30
2018-06-02T04:36:52.660Z,17.40
2018-06-02T04:39:20.090Z,17.40
2018-06-02T04:41:47.507Z,17.40
2018-06-02T04:44:14.945Z,17.40
2018-06-02T04:46:42.384Z,17.40
2018-06-02T04:49:10.572Z,17.30
2018-06-02T04:51:38.771Z,17.30
2018-06-02T04:54:06.971Z,17.40
2018-06-02T04:56:34.423Z,17.30
2018-06-02T04:59:02.645Z,17.30
2018-06-02T05:01:30.061Z,17.40
2018-06-02T05:03:57.481Z,17.40
2018-06-02T05:06:24.908Z,17.50
2018-06-02T05:08:53.107Z,17.60
2018-06-02T05:11:21.315Z,17.60
2018-06-02T05:13:48.748Z,17.60
2018-06-02T05:16:16.954Z,17.70
2018-06-02T05:18:45.151Z,17.70
2018-06-02T05:21:12.576Z,17.70
2018-06-02T05:23:40.014Z,17.70
2018-06-02T05:26:07.443Z,17.70
2018-06-02T05:28:35.656Z,17.70
2018-06-02T05:31:03.073Z,17.70
2018-06-02T05:33:30.510Z,17.80
2018-06-02T05:35:57.940Z,17.80
2018-06-02T05:38:26.598Z,17.90
2018-06-02T05:40:54.022Z,17.90
2018-06-02T05:43:21.484Z,18.00
2018-06-02T05:45:48.920Z,18.00
2018-06-02T05:48:16.325Z,18.10
2018-06-02T05:50:43.830Z,18.20
2018-06-02T05:53:11.276Z,18.30
2018-06-02T05:55:38.696Z,18.30
2018-06-02T05:58:06.127Z,18.40
2018-06-02T06:00:33.608Z,18.30
2018-06-02T06:03:01.040Z,18.30
2018-06-02T06:05:29.229Z,18.20
2018-06-02T06:07:56.660Z,18.20
2018-06-02T06:10:24.079Z,18.10
2018-06-02T06:12:51.505Z,18.30
2018-06-02T06:15:18.932Z,18.10
2018-06-02T06:17:46.370Z,18.30
2018-06-02T06:20:14.569Z,18.30
2018-06-02T06:22:41.988Z,18.30
2018-06-02T06:25:09.425Z,18.30
2018-06-02T06:27:36.849Z,18.30
2018-06-02T06:30:04.284Z,18.30
2018-06-02T06:32:31.698Z,18.50
2018-06-02T06:34:59.891Z,18.70
2018-06-02T06:37:28.084Z,18.70
2018-06-02T06:39:55.521Z,18.60
2018-06-02T06:42:22.938Z,18.70
2018-06-02T06:44:50.359Z,18.70
2018-06-02T06:47:17.782Z,18.70
2018-06-02T06:49:45.190Z,18.90
2018-06-02T06:52:12.621Z,19.00
2018-06-02T06:54:40.047Z,19.00
2018-06-02T06:57:07.489Z,19.20
2018-06-02T06:59:35.001Z,19.40
2018-06-02T07:02:03.190Z,19.30
2018-06-02T07:04:31.391Z,19.40
2018-06-02T07:06:59.568Z,19.60
2018-06-02T07:09:27.751Z,19.60
2018-06-02T07:11:55.195Z,19.60
2018-06-02T07:14:22.605Z,19.80
2018-06-02T07:16:50.028Z,19.90
2018-06-02T07:19:17.460Z,19.90
2018-06-02T07:21:44.922Z,20.00
2018-06-02T07:24:12.288Z,20.00
2018-06-02T07:26:39.709Z,20.10
2018-06-02T07:29:07.134Z,20.20
2018-06-02T07:31:34.556Z,20.30
2018-06-02T07:34:01.979Z,20.30
2018-06-02T07:36:29.397Z,20.30
2018-06-02T07:38:56.823Z,20.20
2018-06-02T07:41:24.248Z,20.00
2018-06-02T07:43:52.443Z,20.00
2018-06-02T07:46:20.633Z,20.10
2018-06-02T07:48:48.812Z,20.00
2018-06-02T07:51:17.000Z,20.10
2018-06-02T07:53:45.211Z,20.30
2018-06-02T07:56:12.623Z,20.30
2018-06-02T07:58:40.048Z,20.30
2018-06-02T08:01:07.465Z,20.10
2018-06-02T08:03:34.892Z,20.10
2018-06-02T08:06:02.322Z,20.00
2018-06-02T08:08:29.760Z,19.90
2018-06-02T08:10:57.742Z,20.40
2018-06-02T08:13:25.234Z,20.40
2018-06-02T08:15:52.727Z,20.60
2018-06-02T08:18:24.064Z,20.60
2018-06-02T08:20:51.528Z,20.60
2018-06-02T08:23:18.963Z,20.60
2018-06-02T08:25:46.420Z,20.90
2018-06-02T08:28:13.841Z,21.00
2018-06-02T08:30:41.289Z,20.80
2018-06-02T08:33:08.688Z,20.90
2018-06-02T08:35:36.128Z,20.70
2018-06-02T08:38:03.622Z,20.70
2018-06-02T08:40:31.848Z,20.70
2018-06-02T08:42:59.282Z,20.70
2018-06-02T08:45:26.708Z,20.80
2018-06-02T08:47:54.147Z,20.80
2018-06-02T08:50:21.541Z,20.80
2018-06-02T08:52:48.979Z,20.80
2018-06-02T08:55:17.158Z,20.70
2018-06-02T08:57:44.565Z,20.70
2018-06-02T09:00:11.984Z,20.90
2018-06-02T09:02:39.396Z,20.90
2018-06-02T09:05:06.867Z,21.00
2018-06-02T09:07:34.284Z,21.20
2018-06-02T09:10:01.700Z,21.40
2018-06-02T09:12:29.117Z,21.30
2018-06-02T09:14:56.547Z,21.50
2018-06-02T09:17:23.944Z,21.60
2018-06-02T09:19:51.363Z,21.50
2018-06-02T09:22:19.552Z,21.90
2018-06-02T09:24:47.744Z,21.60
2018-06-02T09:27:15.925Z,21.30
2018-06-02T09:29:44.100Z,21.30
2018-06-02T09:32:11.529Z,21.40
2018-06-02T09:34:39.014Z,21.40
2018-06-02T09:37:06.427Z,21.30
2018-06-02T09:39:34.602Z,21.40
2018-06-02T09:42:02.794Z,21.40
2018-06-02T09:44:30.976Z,21.40
2018-06-02T09:46:59.181Z,21.40
2018-06-02T09:49:26.599Z,21.40
2018-06-02T09:51:54.011Z,21.50
2018-06-02T09:54:21.448Z,21.50
2018-06-02T09:56:48.863Z,21.50
2018-06-02T09:59:16.284Z,21.40
2018-06-02T10:01:43.713Z,21.30
2018-06-02T10:04:11.145Z,21.50
2018-06-02T10:06:39.330Z,21.60
2018-06-02T10:09:07.534Z,21.50
2018-06-02T10:11:34.965Z,21.50
2018-06-02T10:14:02.377Z,21.60
2018-06-02T10:16:29.806Z,21.60
2018-06-02T10:18:57.237Z,21.80
2018-06-02T10:21:24.649Z,21.70
2018-06-02T10:23:52.069Z,21.70
2018-06-02T10:26:19.481Z,21.80
2018-06-02T10:28:46.896Z,22.00
2018-06-02T10:31:14.308Z,22.10
2018-06-02T10:33:41.719Z,22.20
2018-06-02T10:36:09.127Z,21.90
2018-06-02T10:38:36.588Z,21.80
2018-06-02T10:41:04.735Z,22.00
2018-06-02T10:43:32.932Z,22.20
2018-06-02T10:46:01.109Z,22.50
2018-06-02T10:48:29.307Z,22.20
2018-06-02T10:50:57.490Z,22.00
2018-06-02T10:53:25.673Z,22.20
2018-06-02T10:55:53.867Z,22.20
2018-06-02T10:58:22.050Z,22.20
2018-06-02T11:00:50.231Z,22.10
2018-06-02T11:03:18.416Z,22.10
2018-06-02T11:05:46.602Z,22.20
2018-06-02T11:08:14.783Z,22.50
2018-06-02T11:10:42.212Z,22.50
2018-06-02T11:13:09.618Z,22.50
2018-06-02T11:15:37.075Z,22.50
2018-06-02T11:18:04.490Z,22.70
2018-06-02T11:20:31.908Z,23.00
2018-06-02T11:22:59.332Z,23.10
2018-06-02T11:25:26.767Z,22.90
2018-06-02T11:27:54.183Z,23.00
2018-06-02T11:30:21.622Z,22.90
2018-06-02T11:32:49.837Z,23.10
2018-06-02T11:35:17.255Z,23.10
2018-06-02T11:37:44.665Z,23.20
2018-06-02T11:40:12.085Z,23.20
2018-06-02T11:42:39.537Z,23.00
2018-06-02T11:45:06.947Z,23.10
2018-06-02T11:47:35.147Z,23.30
2018-06-02T11:50:03.309Z,23.10
2018-06-02T11:52:30.732Z,23.10
2018-06-02T11:54:58.162Z,23.20
2018-06-02T11:57:26.361Z,23.10
2018-06-02T11:59:53.840Z,23.10
2018-06-02T12:02:21.275Z,23.10
2018-06-02T12:04:49.453Z,23.20
2018-06-02T12:07:16.862Z,23.20
2018-06-02T12:09:44.284Z,23.20
2018-06-02T12:12:11.705Z,23.40
2018-06-02T12:14:39.116Z,23.50
2018-06-02T12:17:07.302Z,23.60
2018-06-02T12:19:34.812Z,23.60
2018-06-02T12:22:02.984Z,23.50
2018-06-02T12:24:30.405Z,23.50
2018-06-02T12:26:57.877Z,23.60
2018-06-02T12:29:25.284Z,23.60
2018-06-02T12:31:52.704Z,23.50
2018-06-02T12:34:20.115Z,23.50
2018-06-02T12:36:47.526Z,23.40
2018-06-02T12:39:14.948Z,23.40
2018-06-02T12:41:42.364Z,23.30
2018-06-02T12:44:09.779Z,23.30
2018-06-02T12:46:37.196Z,23.20
2018-06-02T12:49:04.611Z,23.20
2018-06-02T12:51:32.029Z,23.30
2018-06-02T12:54:00.215Z,23.40
2018-06-02T12:56:28.406Z,23.50
2018-06-02T12:58:56.586Z,23.50
2018-06-02T13:01:24.784Z,23.60
2018-06-02T13:03:52.207Z,23.60
2018-06-02T13:06:19.611Z,23.70
2018-06-02T13:08:47.794Z,23.90
2018-06-02T13:11:15.214Z,23.90
2018-06-02T13:13:42.629Z,24.00
2018-06-02T13:16:10.035Z,24.00
2018-06-02T13:18:37.458Z,23.70
2018-06-02T13:21:04.872Z,23.70
2018-06-02T13:23:32.295Z,23.80
2018-06-02T13:25:59.721Z,23.90
2018-06-02T13:28:27.147Z,24.00
2018-06-02T13:30:55.352Z,23.80
2018-06-02T13:33:23.573Z,23.80
2018-06-02T13:35:50.993Z,23.70
2018-06-02T13:38:19.168Z,23.90
2018-06-02T13:40:46.585Z,23.90
2018-06-02T13:43:14.004Z,24.20
2018-06-02T13:45:41.423Z,24.10
2018-06-02T13:48:08.914Z,24.10
2018-06-02T13:50:36.344Z,24.20
2018-06-02T13:53:04.524Z,24.40
2018-06-02T13:55:32.697Z,25.30
2018-06-02T13:58:00.880Z,27.00
2018-06-02T14:00:28.292Z,26.90
2018-06-02T14:02:55.704Z,27.40
2018-06-02T14:05:23.132Z,28.00
2018-06-02T14:07:50.556Z,28.10
2018-06-02T14:10:18.733Z,28.20
2018-06-02T14:12:46.153Z,28.20
2018-06-02T14:15:13.569Z,28.90
2018-06-02T14:17:41.002Z,27.40
2018-06-02T14:20:08.398Z,25.70
2018-06-02T14:22:35.827Z,26.10
2018-06-02T14:25:03.250Z,26.40
2018-06-02T14:27:30.659Z,26.40
2018-06-02T14:29:58.081Z,26.50
2018-06-02T14:32:25.492Z,25.90
2018-06-02T14:34:52.928Z,25.60
2018-06-02T14:37:20.354Z,25.60
2018-06-02T14:39:47.756Z,26.20
2018-06-02T14:42:15.179Z,26.60
2018-06-02T14:44:42.590Z,26.80
2018-06-02T14:47:10.020Z,26.90
2018-06-02T14:49:37.430Z,27.40
2018-06-02T14:52:04.836Z,27.50
2018-06-02T14:54:32.260Z,27.90
2018-06-02T14:56:59.675Z,27.00
2018-06-02T14:59:27.075Z,26.90
2018-06-02T15:01:54.503Z,27.30
2018-06-02T15:04:22.701Z,28.00
2018-06-02T15:06:50.124Z,28.00
2018-06-02T15:09:18.319Z,27.10
2018-06-02T15:11:45.734Z,27.10
2018-06-02T15:14:13.164Z,26.70
2018-06-02T15:16:40.576Z,27.20
2018-06-02T15:19:07.996Z,27.90
2018-06-02T15:21:35.415Z,28.40
2018-06-02T15:24:02.877Z,27.80
2018-06-02T15:26:31.046Z,27.70
2018-06-02T15:28:58.493Z,27.70
2018-06-02T15:31:25.919Z,27.80
2018-06-02T15:33:53.342Z,28.10
2018-06-02T15:36:20.769Z,28.30
2018-06-02T15:38:48.177Z,27.40
2018-06-02T15:41:15.592Z,26.70
2018-06-02T15:43:43.012Z,26.70
2018-06-02T15:46:10.446Z,26.30
2018-06-02T15:48:37.876Z,25.50
2018-06-02T15:51:06.073Z,25.20
2018-06-02T15:53:33.496Z,25.20
2018-06-02T15:56:00.908Z,25.20
2018-06-02T15:58:28.334Z,25.20
2018-06-02T16:00:55.749Z,25.10
2018-06-02T16:03:23.193Z,25.30
2018-06-02T16:05:50.607Z,25.90
2018-06-02T16:08:18.023Z,26.00
2018-06-02T16:10:45.432Z,26.60
2018-06-02T16:13:12.879Z,26.60
2018-06-02T16:15:41.066Z,27.50
2018-06-02T16:18:09.252Z,27.00
2018-06-02T16:20:37.443Z,28.30
2018-06-02T16:23:05.648Z,29.40
2018-06-02T16:25:33.084Z,30.00
2018-06-02T16:28:00.542Z,30.10
2018-06-02T16:30:27.945Z,30.50
2018-06-02T16:32:55.368Z,30.40
2018-06-02T16:35:22.806Z,29.40
2018-06-02T16:37:50.232Z,30.00
2018-06-02T16:40:17.661Z,31.40
2018-06-02T16:42:45.086Z,31.70
2018-06-02T16:45:13.300Z,30.20
2018-06-02T16:47:40.719Z,30.10
2018-06-02T16:50:08.144Z,29.80
2018-06-02T16:52:35.568Z,29.10
2018-06-02T16:55:02.998Z,28.80
2018-06-02T16:57:30.419Z,28.70
2018-06-02T16:59:58.621Z,28.70
2018-06-02T17:02:26.027Z,30.50
2018-06-02T17:04:53.453Z,30.50
2018-06-02T17:07:20.916Z,31.50
2018-06-02T17:09:49.107Z,31.30
2018-06-02T17:12:17.286Z,31.60
2018-06-02T17:14:45.517Z,32.40
2018-06-02T17:17:12.924Z,32.40
2018-06-02T17:19:40.354Z,32.90
2018-06-02T17:22:07.777Z,32.30
2018-06-02T17:24:35.239Z,31.90
2018-06-02T17:27:02.642Z,31.30
2018-06-02T17:29:30.067Z,30.60
2018-06-02T17:31:57.502Z,30.40
2018-06-02T17:34:24.950Z,30.40
2018-06-02T17:36:52.372Z,30.40
2018-06-02T17:39:20.580Z,30.90
2018-06-02T17:41:48.794Z,29.30
2018-06-02T17:44:16.296Z,29.30
2018-06-02T17:46:43.709Z,27.90
2018-06-02T17:49:11.884Z,26.50
2018-06-02T17:51:39.447Z,26.50
2018-06-02T17:54:06.870Z,26.10
2018-06-02T17:56:34.342Z,26.00
2018-06-02T17:59:01.738Z,25.30
2018-06-02T18:01:29.158Z,25.20
2018-06-02T18:03:56.584Z,24.90
2018-06-02T18:06:23.988Z,24.80
2018-06-02T18:08:51.431Z,24.60
2018-06-02T18:11:18.855Z,24.50
2018-06-02T18:13:46.293Z,24.40
2018-06-02T18:16:13.699Z,26.00
2018-06-02T18:18:41.156Z,27.20
2018-06-02T18:21:08.573Z,27.60
2018-06-02T18:23:35.996Z,27.40
2018-06-02T18:26:03.425Z,26.90
2018-06-02T18:28:30.856Z,26.90
2018-06-02T18:30:58.290Z,26.00
2018-06-02T18:33:25.708Z,25.00
2018-06-02T18:35:53.171Z,24.40
2018-06-02T18:38:20.572Z,24.10
2018-06-02T18:40:48.765Z,23.80
2018-06-02T18:43:16.968Z,23.60
2018-06-02T18:45:45.141Z,23.60
2018-06-02T18:48:12.576Z,23.50
2018-06-02T18:50:39.971Z,23.40
2018-06-02T18:53:07.389Z,23.10
2018-06-02T18:55:34.815Z,22.90
2018-06-02T18:58:02.997Z,22.80
2018-06-02T19:00:30.412Z,22.80
2018-06-02T19:02:57.830Z,22.80
2018-06-02T19:05:25.261Z,22.70
2018-06-02T19:07:52.672Z,22.80
2018-06-02T19:10:20.118Z,22.40
2018-06-02T19:12:47.551Z,22.30
2018-06-02T19:15:14.970Z,22.10
2018-06-02T19:17:42.387Z,22.00
2018-06-02T19:20:09.812Z,21.90
2018-06-02T19:22:37.239Z,21.90
2018-06-02T19:25:04.661Z,21.80
2018-06-02T19:28:10.707Z,21.80
2018-06-02T19:30:38.884Z,21.60
2018-06-02T19:33:07.041Z,21.50
2018-06-02T19:35:35.192Z,21.40
2018-06-02T19:38:03.345Z,21.30
2018-06-02T19:40:31.475Z,21.40
2018-06-02T19:42:59.629Z,21.30
2018-06-02T19:45:27.794Z,21.20
2018-06-02T19:47:55.956Z,21.00
2018-06-02T19:50:24.080Z,21.00
2018-06-02T19:52:52.204Z,21.00
2018-06-02T19:55:20.685Z,21.10
2018-06-02T19:57:48.798Z,21.00
2018-06-02T20:00:16.971Z,21.00
2018-06-02T20:02:45.128Z,21.00
2018-06-02T20:05:13.263Z,21.00
2018-06-02T20:07:41.388Z,20.90
2018-06-02T20:10:09.543Z,20.90
2018-06-02T20:12:37.665Z,20.90
2018-06-02T20:15:05.818Z,20.90
2018-06-02T20:17:33.992Z,20.90
2018-06-02T20:20:02.150Z,20.90
2018-06-02T20:22:30.315Z,20.90
2018-06-02T20:24:58.488Z,20.80
2018-06-02T20:27:26.671Z,20.80
2018-06-02T20:29:54.804Z,20.70
2018-06-02T20:32:22.963Z,20.70
2018-06-02T20:34:51.116Z,20.70
2018-06-02T20:37:19.242Z,20.70
2018-06-02T20:39:47.399Z,20.70
2018-06-02T20:42:15.587Z,20.70
2018-06-02T20:44:43.712Z,20.60
2018-06-02T20:47:11.852Z,20.60
2018-06-02T20:49:40.058Z,20.60
2018-06-02T20:52:08.189Z,20.50
2018-06-02T20:54:36.365Z,20.50
2018-06-02T20:57:04.500Z,20.50
2018-06-02T20:59:32.629Z,20.40
2018-06-02T21:02:00.765Z,20.40
2018-06-02T21:04:28.895Z,20.40
2018-06-02T21:06:57.070Z,20.30
2018-06-02T21:09:25.208Z,20.30
2018-06-02T21:11:53.329Z,20.30
2018-06-02T21:14:21.473Z,20.20
2018-06-02T21:16:49.666Z,20.20
2018-06-02T21:19:17.789Z,20.30
2018-06-02T21:21:45.916Z,20.30
2018-06-02T21:24:14.057Z,20.30
2018-06-02T21:26:42.194Z,20.30
2018-06-02T21:29:10.309Z,20.30
2018-06-02T21:31:38.524Z,20.30
2018-06-02T21:34:06.676Z,20.20
2018-06-02T21:36:34.796Z,20.10
2018-06-02T21:39:02.970Z,20.10
2018-06-02T21:41:31.117Z,20.00
2018-06-02T21:46:27.150Z,19.90
2018-06-02T21:48:55.272Z,19.80
2018-06-02T21:51:23.390Z,19.90
2018-06-02T21:53:51.543Z,19.90
2018-06-02T21:56:19.689Z,19.90
2018-06-02T21:58:47.814Z,19.80
2018-06-02T22:01:15.979Z,19.70
2018-06-02T22:03:44.130Z,19.70
2018-06-02T22:06:12.275Z,19.70
2018-06-02T22:08:40.448Z,19.70
2018-06-02T22:11:08.593Z,19.70
2018-06-02T22:13:36.734Z,19.70
2018-06-02T22:16:04.865Z,19.60
2018-06-02T22:18:32.995Z,19.60
2018-06-02T22:21:01.165Z,19.60
2018-06-02T22:23:29.353Z,19.60
2018-06-02T22:25:57.469Z,19.60
2018-06-02T22:28:25.981Z,19.50
2018-06-02T22:30:54.081Z,19.50
2018-06-02T22:33:22.224Z,19.50
2018-06-02T22:35:50.352Z,19.40
2018-06-02T22:38:18.488Z,19.40
2018-06-02T22:40:46.685Z,19.30
2018-06-02T22:43:14.800Z,19.30
2018-06-02T22:45:42.960Z,19.30
2018-06-02T22:48:11.105Z,19.30
2018-06-02T22:50:39.281Z,19.30
2018-06-02T22:53:07.456Z,19.30
2018-06-02T22:55:35.680Z,19.20
2018-06-02T22:58:03.845Z,19.20
2018-06-02T23:00:32.035Z,19.20
2018-06-02T23:03:00.201Z,19.20
2018-06-02T23:05:28.584Z,19.10
2018-06-02T23:07:56.734Z,19.10
2018-06-02T23:12:52.760Z,19.00
2018-06-02T23:15:20.896Z,19.00
2018-06-02T23:17:49.066Z,19.00
2018-06-02T23:20:17.207Z,19.00
2018-06-02T23:22:45.360Z,18.90
2018-06-02T23:25:13.488Z,18.90
2018-06-02T23:27:41.641Z,18.90
2018-06-02T23:30:09.809Z,18.80
2018-06-02T23:32:37.967Z,18.80
2018-06-02T23:35:06.089Z,18.80
2018-06-02T23:37:34.219Z,18.80
2018-06-02T23:40:02.341Z,18.80
2018-06-02T23:42:30.485Z,18.80
2018-06-02T23:44:58.675Z,18.80
2018-06-02T23:47:26.806Z,18.80
2018-06-02T23:49:54.949Z,18.70
2018-06-02T23:52:23.077Z,18.70
2018-06-02T23:54:51.219Z,18.70
2018-06-02T23:57:19.367Z,18.70
2018-06-02T23:59:47.502Z,18.70
